Arriba, CO

11:06 PM MDT on July 05, 2015 (GMT -0600)
APRSWXNET | | Change Station
CLOSE
Current Station
Personal Weather Station
Location: Genoa, CO
Elevation: 5577 ft
Nearby Weather Stations

Elev 5577 ft 39.31 °N, 103.46 °W | Updated 20 minutes ago

Partly Cloudy
Partly Cloudy
67 °F
Feels Like 67 °F
N
14
Wind Variable Wind from North
Gusts 23.0 mph

Today
High -- | Low -- °F
--% Chance of Precip.
Yesterday
High -- | Low -- °F
Precip. -- in
5:32 AM 8:22 PM
Waning Gibbous, 79% visible
Pressure 29.81 in
Visibility 10.0 miles
Clouds Overcast 10000 ft
Dew Point 58 °F
Humidity 73%
Rainfall in
Snow Depth Not available.
UV 0 out of 12
Pollen 5.40 out of 12
Air Quality Not available.
Flu Activity Not available.
METAR KLIC 060455Z AUTO 01018G28KT 10SM OVC100 19/14 A3006 RMK AO2 PK WND 01028/0446 SLP092 T01940139 $

More Conditions Fewer Conditions

Pressure 29.81 in
Visibility 10.0 miles
Clouds Overcast 10000 ft
Dew Point 58 °F
Humidity 73%
Rainfall in
Snow Depth Not available.
UV 0 out of 12
Pollen 5.40 out of 12
Air Quality Not available.
Flu Activity Not available.
METAR KLIC 060455Z AUTO 01018G28KT 10SM OVC100 19/14 A3006 RMK AO2 PK WND 01028/0446 SLP092 T01940139 $

More Conditions Fewer Conditions

10-Day Weather Forecast

×

Almanac

Astronomy

Jul. 05, 2015 Rise Set
Actual Time
Civil Twilight
Nautical Twilight
Astronomical Twilight
Moon
Length of Visible Light
Length of Day
Tomorrow will be .
, % of the Moon is Illuminated

Today's Extremes

State Highs State Lows

Community

WunderPhotos

Upload Photos

1,835,487 photos uploaded!

WunderBlogs® & News

Nearby

Air Quality

  Air Quality AQ Index Pollutant
Not available.

Snow Depth

Station Depth Elevation

Earthquake Activity

City Distance Mag. Time & Date
Minimum magnitude displayed is 2.5.

Coastal Water Temperatures

Place Temperature

Stations

Nearby Weather Stations

Station Location Temp. Windchill Dew Point Humidity Wind Precip. Elev Updated Type